Time;durP1;ratioP1;P1;durP2;ratioP2;P2;SDS_P1;SDS_P2;PMS_P1;PMS_P2;Temp;Humidity;BMP_temperature;BMP_pressure;BME280_temperature;BME280_humidity;BME280_pressure;Samples;Min_cycle;Max_cycle;Signal;HPM_P1;HPM_P2
2023/06/27 00:03:24;;;;;;;3.88;3.00;;;18.30;90.10;;;17.30;79.47;99808.75;12460407;23;96949;-92
2023/06/27 00:08:27;;;;;;;4.63;3.40;;;18.30;90.40;;;17.29;79.75;99807.13;12438701;23;96392;-92
2023/06/27 00:13:30;;;;;;;5.72;3.58;;;18.30;90.50;;;17.25;80.04;99801.34;12437519;23;96560;-92
2023/06/27 00:18:34;;;;;;;5.03;3.33;;;18.30;90.70;;;17.25;80.18;99809.41;12459114;23;96908;-90
2023/06/27 00:23:38;;;;;;;6.60;3.30;;;18.30;90.80;;;17.23;80.25;99810.69;12459223;23;96681;-91
2023/06/27 00:28:41;;;;;;;4.90;3.47;;;18.30;91.00;;;17.22;80.00;99814.41;12459842;23;96474;-91
2023/06/27 00:33:45;;;;;;;5.20;3.08;;;18.30;91.00;;;17.20;79.69;99814.63;12459400;23;96651;-92
2023/06/27 00:38:49;;;;;;;12.77;5.07;;;18.30;91.10;;;17.18;79.76;99815.88;12458872;23;96473;-92
2023/06/27 00:43:51;;;;;;;5.30;3.50;;;18.30;91.10;;;17.18;80.70;99821.25;12436162;23;96545;-90
2023/06/27 00:48:56;;;;;;;5.85;3.80;;;18.30;91.30;;;17.17;80.69;99817.75;12458752;23;96579;-91
2023/06/27 00:54:00;;;;;;;6.35;3.70;;;18.20;91.50;;;17.18;80.23;99815.88;12459377;23;97043;-91
2023/06/27 00:59:05;;;;;;;7.50;3.90;;;18.20;91.50;;;17.16;80.10;99817.97;12455877;23;96854;-92
2023/06/27 01:04:08;;;;;;;6.70;4.13;;;18.20;91.80;;;17.01;80.67;99794.94;12450517;23;96518;-92
2023/06/27 01:09:51;;;;;;;4.70;4.05;;;18.20;92.10;;;16.99;80.66;99804.28;12482459;23;96845;-92
2023/06/27 01:14:57;;;;;;;4.97;3.42;;;18.10;92.00;;;16.95;81.04;99798.50;12437812;23;96450;-92
2023/06/27 01:20:05;;;;;;;4.88;3.53;;;18.10;92.00;;;16.92;80.98;99793.59;12459280;23;96441;-92
2023/06/27 01:25:11;;;;;;;4.35;3.40;;;18.10;92.10;;;16.94;81.29;99799.56;12460908;23;96447;-92
2023/06/27 01:30:17;;;;;;;4.10;3.35;;;18.10;92.20;;;16.94;81.54;99793.38;12459255;23;96766;-92
2023/06/27 01:36:02;;;;;;;4.60;3.42;;;18.10;92.30;;;16.92;81.37;99790.91;12482403;23;96921;-92
2023/06/27 01:41:10;;;;;;;5.43;3.05;;;18.00;92.40;;;16.80;82.00;99785.44;12459079;23;96530;-91
2023/06/27 01:46:14;;;;;;;5.28;3.45;;;17.90;92.70;;;16.66;82.19;99791.06;12459847;23;96868;-92
2023/06/27 01:51:18;;;;;;;6.53;3.55;;;17.70;93.00;;;16.54;83.04;99783.72;12457771;23;96301;-92
2023/06/27 01:56:23;;;;;;;8.65;3.95;;;17.60;93.30;;;16.51;83.50;99789.53;12437656;23;96516;-92
2023/06/27 02:01:27;;;;;;;5.05;4.07;;;17.50;93.50;;;16.53;84.13;99781.25;12459147;23;96445;-92
2023/06/27 02:06:30;;;;;;;5.97;3.80;;;17.50;93.80;;;16.54;85.04;99783.72;12484877;23;96616;-92
2023/06/27 02:11:34;;;;;;;5.80;4.22;;;17.60;94.40;;;16.59;85.61;99783.06;12461941;23;96469;-91
2023/06/27 02:16:38;;;;;;;5.20;3.50;;;17.60;94.30;;;16.60;85.74;99768.63;12460888;23;96538;-91
2023/06/27 02:21:43;;;;;;;5.00;3.83;;;17.70;94.40;;;16.62;85.09;99763.88;12460999;23;96977;-92
2023/06/27 02:26:47;;;;;;;7.32;5.05;;;17.70;94.50;;;16.62;85.12;99747.78;12462200;23;96489;-91
2023/06/27 02:31:50;;;;;;;11.05;6.88;;;17.70;94.60;;;16.64;84.43;99742.19;12458700;23;96940;-91
2023/06/27 02:36:54;;;;;;;7.53;4.57;;;17.60;94.60;;;16.60;84.72;99733.75;12438485;23;96447;-91
2023/06/27 02:41:57;;;;;;;5.20;4.10;;;17.60;94.80;;;16.48;85.16;99730.94;12460693;23;96884;-92
2023/06/27 02:47:01;;;;;;;7.22;4.50;;;17.60;95.10;;;16.44;85.46;99742.34;12458958;23;96840;-91
2023/06/27 02:52:05;;;;;;;6.03;4.20;;;17.50;95.40;;;16.44;85.64;99734.31;12458939;23;96867;-92
2023/06/27 02:57:10;;;;;;;4.78;4.03;;;17.50;95.60;;;16.41;86.25;99738.22;12461486;23;96389;-92
2023/06/27 03:02:14;;;;;;;7.82;5.35;;;17.50;95.70;;;16.38;86.66;99752.06;12461036;23;97038;-92
2023/06/27 03:07:19;;;;;;;6.65;3.80;;;17.50;96.00;;;16.44;86.46;99759.25;12461135;23;96489;-94
2023/06/27 03:12:22;;;;;;;5.78;4.05;;;17.50;96.10;;;16.46;86.80;99743.75;12438381;23;96702;-93
2023/06/27 03:17:26;;;;;;;7.10;4.57;;;17.60;96.40;;;16.56;87.13;99735.25;12485887;23;96495;-93
2023/06/27 03:22:30;;;;;;;6.85;4.32;;;17.60;96.50;;;16.59;87.64;99732.94;12460661;23;96341;-93
2023/06/27 03:27:34;;;;;;;6.18;4.10;;;17.70;96.80;;;16.65;88.54;99741.97;12462374;23;96411;-93
2023/06/27 03:32:37;;;;;;;5.50;3.88;;;17.80;97.00;;;16.67;88.32;99745.25;12460900;23;96462;-93
2023/06/27 03:37:41;;;;;;;5.85;4.05;;;17.70;97.30;;;16.70;87.50;99744.84;12459684;23;96486;-92
2023/06/27 03:42:44;;;;;;;5.10;3.53;;;17.70;97.40;;;16.78;85.39;99741.06;12460009;23;97654;-89
2023/06/27 03:47:48;;;;;;;5.78;3.90;;;17.80;97.10;;;16.88;84.88;99719.94;12459533;23;96410;-90
2023/06/27 03:52:52;;;;;;;4.63;3.08;;;17.90;97.10;;;17.04;84.60;99727.41;12460659;23;96479;-90
2023/06/27 03:57:55;;;;;;;4.43;3.35;;;18.10;97.00;;;17.22;84.21;99729.31;12460050;23;96529;-90
2023/06/27 04:02:59;;;;;;;8.23;3.38;;;18.30;96.80;;;17.41;83.78;99732.81;12458705;23;97656;-89
2023/06/27 04:08:03;;;;;;;3.33;2.97;;;18.40;96.70;;;17.55;83.17;99734.31;12459744;23;96539;-89
2023/06/27 04:13:07;;;;;;;7.50;3.55;;;18.60;96.50;;;17.72;83.74;99747.16;12485370;23;96505;-91
2023/06/27 04:18:11;;;;;;;6.13;4.03;;;18.80;96.60;;;17.83;84.08;99759.84;12461645;23;96887;-89
2023/06/27 04:23:15;;;;;;;5.85;3.65;;;18.90;96.80;;;17.96;83.73;99766.94;12461106;23;97131;-90
2023/06/27 04:28:18;;;;;;;4.18;3.35;;;19.00;96.70;;;17.96;82.97;99769.63;12458691;23;96438;-89
2023/06/27 04:33:22;;;;;;;5.15;3.40;;;19.10;96.60;;;18.03;83.17;99768.47;12458295;23;96913;-90
2023/06/27 04:38:29;;;;;;;6.68;3.65;;;19.10;96.60;;;18.24;81.98;99751.03;12459822;23;97231;-92
2023/06/27 04:43:33;;;;;;;6.60;4.60;;;19.20;96.50;;;18.63;84.95;99714.63;12460943;23;96537;-90
2023/06/27 04:48:41;;;;;;;6.65;4.82;;;19.60;97.20;;;18.78;88.20;99700.75;12460768;23;97148;-90
2023/06/27 04:53:46;;;;;;;7.57;4.60;;;19.80;98.10;;;18.75;91.05;99703.91;12461892;23;96576;-90
2023/06/27 04:58:50;;;;;;;7.72;4.38;;;19.80;98.40;;;18.62;92.02;99707.59;12460368;23;97145;-90
2023/06/27 05:04:04;;;;;;;8.38;4.95;;;19.70;98.80;;;18.35;93.38;99715.28;12459719;23;96752;-89
2023/06/27 05:09:08;;;;;;;8.18;5.53;;;19.50;99.60;;;18.30;98.92;99736.66;12463393;23;96455;-87
2023/06/27 05:14:12;;;;;;;8.55;5.72;;;19.40;99.90;;;18.37;100.00;99728.50;12459577;23;96504;-86
2023/06/27 05:19:15;;;;;;;8.95;6.13;;;19.40;99.90;;;18.49;99.41;99737.41;12458155;23;96998;-87
2023/06/27 05:24:19;;;;;;;6.35;5.45;;;19.50;99.90;;;18.60;99.44;99744.69;12458050;23;96509;-88
2023/06/27 05:29:23;;;;;;;6.10;5.40;;;19.60;99.90;;;18.69;99.72;99735.25;12462021;23;96508;-87
2023/06/27 05:34:29;;;;;;;6.80;5.57;;;19.70;99.90;;;18.80;100.00;99738.19;12462722;23;97406;-88
2023/06/27 05:39:33;;;;;;;8.85;6.60;;;19.90;99.90;;;18.92;100.00;99752.47;12462183;23;96523;-88
2023/06/27 05:44:36;;;;;;;9.52;6.05;;;19.90;99.90;;;19.07;100.00;99762.78;12462647;23;96860;-88
2023/06/27 05:49:40;;;;;;;7.13;5.82;;;20.10;99.90;;;19.20;100.00;99762.56;12473381;23;96425;-88
2023/06/27 05:54:43;;;;;;;8.00;6.18;;;20.20;99.90;;;19.35;99.42;99751.31;12462102;23;96524;-87
2023/06/27 05:59:48;;;;;;;7.30;5.60;;;20.30;99.90;;;19.54;99.06;99752.78;12471069;23;96566;-89
2023/06/27 06:04:54;;;;;;;7.32;6.38;;;20.50;99.90;;;19.78;96.62;99746.31;12462340;23;96507;-87
2023/06/27 06:09:57;;;;;;;8.82;7.30;;;20.80;99.90;;;20.09;94.57;99754.19;12470268;23;96381;-88
2023/06/27 06:15:01;;;;;;;988.45;720.30;;;21.00;99.90;;;20.28;94.11;99739.47;12462603;23;96369;-88
2023/06/27 06:20:11;;;;;;;516.75;376.67;;;21.20;99.90;;;20.52;93.82;99745.56;12460910;23;96408;-88
2023/06/27 06:25:16;;;;;;;670.08;516.33;;;21.40;99.90;;;20.73;91.84;99742.13;12463457;23;96374;-88
2023/06/27 06:30:20;;;;;;;91.78;69.22;;;21.60;99.90;;;20.92;90.43;99733.78;12460208;23;96850;-91
2023/06/27 06:35:24;;;;;;;86.88;69.70;;;21.90;99.90;;;21.00;88.68;99752.28;12461311;23;96684;-88
2023/06/27 06:40:29;;;;;;;46.75;37.65;;;22.00;99.90;;;21.08;89.04;99752.69;12459256;23;96544;-88
2023/06/27 06:45:32;;;;;;;20.55;16.30;;;22.00;99.90;;;21.16;88.70;99769.53;12462177;23;96489;-89
2023/06/27 06:50:36;;;;;;;11.57;9.48;;;22.10;99.90;;;21.19;86.95;99785.25;12462598;23;96829;-88
2023/06/27 06:55:40;;;;;;;7.95;7.13;;;22.10;99.90;;;21.17;87.38;99780.09;12439006;23;96874;-90
2023/06/27 07:00:44;;;;;;;7.50;6.70;;;22.10;99.90;;;21.16;87.63;99789.25;12459701;23;97848;-88
2023/06/27 07:05:48;;;;;;;10.18;6.60;;;22.10;99.90;;;21.23;88.04;99794.50;12459694;23;96681;-87
2023/06/27 07:10:52;;;;;;;9.00;6.68;;;22.20;99.90;;;21.23;85.88;99783.69;12460751;23;96657;-86
2023/06/27 07:15:55;;;;;;;10.52;7.00;;;22.20;99.90;;;21.19;84.99;99793.38;12459001;23;97030;-86
2023/06/27 07:20:59;;;;;;;8.43;6.63;;;22.20;99.90;;;21.19;84.07;99801.47;12460784;23;97711;-85
2023/06/27 07:26:04;;;;;;;7.82;6.28;;;22.10;99.90;;;21.21;84.80;99793.94;12459889;23;96985;-84
2023/06/27 07:31:07;;;;;;;10.73;7.35;;;22.10;99.90;;;21.26;84.42;99799.41;12459914;23;97169;-84
2023/06/27 07:36:12;;;;;;;8.68;6.75;;;22.20;99.90;;;21.38;84.38;99803.69;12481969;23;96675;-91
2023/06/27 07:41:16;;;;;;;7.95;6.68;;;22.30;99.90;;;21.53;83.90;99813.06;12460544;23;96716;-88
2023/06/27 07:46:19;;;;;;;10.82;6.93;;;22.50;99.90;;;21.67;81.83;99805.44;12459501;23;96936;-90
2023/06/27 07:51:23;;;;;;;6.90;6.20;;;22.60;99.90;;;21.87;81.24;99813.78;12458859;23;96582;-88
2023/06/27 07:56:26;;;;;;;9.77;6.43;;;22.80;99.90;;;21.99;80.11;99810.97;12458675;23;96407;-88
2023/06/27 08:01:30;;;;;;;9.40;6.68;;;22.90;99.70;;;22.08;80.11;99804.88;12483401;23;96442;-90
2023/06/27 08:06:34;;;;;;;6.78;5.97;;;23.00;99.60;;;22.23;77.66;99808.84;12460384;23;96475;-90
2023/06/27 08:11:38;;;;;;;9.43;5.57;;;23.20;99.00;;;22.36;78.04;99825.50;12459629;23;96931;-87
2023/06/27 08:16:42;;;;;;;8.57;6.50;;;23.30;98.90;;;22.40;77.31;99828.53;12459146;23;96546;-88
2023/06/27 08:21:45;;;;;;;14.38;10.52;;;23.30;98.50;;;22.50;76.39;99825.94;12458943;23;96514;-87
2023/06/27 08:26:49;;;;;;;12.20;7.25;;;23.40;98.30;;;22.57;76.09;99826.53;12484297;23;97429;-87
2023/06/27 08:31:58;;;;;;;9.68;6.80;;;23.50;98.00;;;22.60;74.11;99815.19;12481216;23;96640;-88
2023/06/27 08:37:03;;;;;;;9.80;6.45;;;23.50;97.50;;;22.57;73.47;99818.41;12461105;23;96554;-86
2023/06/27 08:42:06;;;;;;;11.20;7.43;;;23.50;97.10;;;22.49;73.07;99818.88;12459644;23;96403;-86
2023/06/27 08:47:12;;;;;;;10.35;7.53;;;23.40;96.80;;;22.38;75.15;99817.16;12458906;23;96941;-87
2023/06/27 08:52:18;;;;;;;7.55;6.05;;;23.30;97.20;;;22.32;76.58;99812.75;12482567;23;97153;-88
2023/06/27 08:57:29;;;;;;;10.10;6.28;;;23.20;97.60;;;22.33;77.00;99814.38;12461084;23;96402;-86
2023/06/27 09:02:33;;;;;;;7.20;6.25;;;23.30;97.90;;;22.30;76.98;99823.81;12459779;23;96398;-87
2023/06/27 09:07:38;;;;;;;8.63;6.63;;;23.20;97.80;;;22.31;78.16;99821.91;12460664;23;96944;-86
2023/06/27 09:12:47;;;;;;;7.18;6.00;;;23.20;98.20;;;22.41;79.17;99820.13;12437320;23;96558;-86
2023/06/27 09:17:52;;;;;;;8.90;5.77;;;23.30;98.40;;;22.54;79.12;99834.34;12459820;23;96895;-86
2023/06/27 09:22:57;;;;;;;8.20;6.05;;;23.50;98.60;;;22.66;78.80;99830.41;12460661;23;96927;-87
2023/06/27 09:28:17;;;;;;;8.43;6.47;;;23.60;98.50;;;22.81;78.14;99837.06;12460884;23;96630;-87
2023/06/27 09:33:21;;;;;;;9.98;6.10;;;23.70;98.40;;;22.87;77.21;99830.66;12459680;23;96425;-88
2023/06/27 09:38:33;;;;;;;7.03;6.32;;;23.80;98.10;;;22.96;76.83;99820.94;12459850;23;96563;-86
2023/06/27 09:43:40;;;;;;;6.95;6.00;;;23.90;98.20;;;23.16;75.46;99839.28;12460975;23;96531;-86
2023/06/27 09:48:44;;;;;;;6.57;5.75;;;24.10;97.60;;;23.30;72.85;99834.22;12482719;23;96434;-86
2023/06/27 09:53:54;;;;;;;7.65;5.47;;;24.20;96.80;;;23.46;70.15;99839.50;12458983;23;96814;-86
2023/06/27 09:59:10;;;;;;;6.80;5.00;;;24.40;95.80;;;23.57;66.12;99824.13;12458800;23;96485;-87
2023/06/27 10:04:26;;;;;;;7.60;4.90;;;24.50;94.10;;;23.64;66.74;99841.00;12462457;23;96358;-85
2023/06/27 10:09:35;;;;;;;7.55;4.93;;;24.50;94.00;;;23.70;65.85;99829.09;12460435;23;96510;-88
2023/06/27 10:14:45;;;;;;;8.20;4.50;;;24.60;93.60;;;23.84;63.98;99824.00;12463493;23;96529;-88
2023/06/27 10:19:53;;;;;;;5.55;4.60;;;24.80;92.80;;;23.92;63.33;99847.09;12443326;23;96617;-84
2023/06/27 10:25:05;;;;;;;8.88;4.30;;;24.90;92.40;;;23.92;63.52;99847.91;12464062;23;96516;-84
2023/06/27 10:30:18;;;;;;;4.15;3.72;;;24.90;92.10;;;23.95;62.27;99847.41;12466054;23;96306;-89
2023/06/27 10:35:26;;;;;;;5.93;3.97;;;24.80;91.40;;;23.92;60.62;99866.91;12488978;23;96648;-85
2023/06/27 10:41:11;;;;;;;5.18;4.03;;;24.90;90.80;;;23.96;62.10;99865.31;12462302;23;96516;-87
2023/06/27 10:46:22;;;;;;;5.38;3.22;;;24.80;91.00;;;24.03;58.75;99855.03;12484819;23;97165;-87
2023/06/27 10:51:43;;;;;;;5.13;3.65;;;25.00;90.30;;;24.02;58.27;99885.16;12457613;23;96742;-85
2023/06/27 10:56:53;;;;;;;4.47;3.20;;;25.00;88.30;;;23.86;58.70;99897.81;12461323;23;96750;-91
2023/06/27 11:02:06;;;;;;;;;;;24.80;88.60;;;23.61;59.86;99914.72;12461704;23;97097;-89
2023/06/27 11:07:17;;;;;;;5.10;3.55;;;24.60;88.70;;;23.33;58.89;99909.59;12463747;23;96849;-89
2023/06/27 11:12:22;;;;;;;4.25;3.50;;;24.30;88.50;;;23.14;61.27;99928.97;12465132;23;96495;-92
2023/06/27 11:17:28;;;;;;;6.80;3.45;;;24.10;90.00;;;23.07;62.96;99933.78;12467616;23;96636;-89
2023/06/27 11:22:32;;;;;;;4.63;3.25;;;24.00;90.50;;;22.83;61.61;99951.38;12468360;23;96634;-90
2023/06/27 11:27:35;;;;;;;5.47;3.67;;;23.80;90.20;;;22.60;63.33;99950.59;12466437;23;96557;-92
2023/06/27 11:32:39;;;;;;;4.72;3.42;;;23.60;90.60;;;22.51;65.68;99962.13;12487215;23;96406;-90
2023/06/27 11:37:42;;;;;;;4.35;3.63;;;23.40;91.30;;;22.44;66.43;99957.72;12485002;23;96730;-90
2023/06/27 11:42:46;;;;;;;5.40;3.60;;;23.40;91.90;;;22.42;66.51;99953.63;12438464;23;96453;-90
2023/06/27 11:47:52;;;;;;;5.10;3.63;;;23.40;92.10;;;22.33;67.59;99952.44;12460185;23;96405;-91
2023/06/27 11:52:57;;;;;;;5.22;3.75;;;23.30;92.30;;;22.27;68.11;99940.72;12460905;23;96421;-92
2023/06/27 11:58:02;;;;;;;6.00;4.10;;;23.20;92.60;;;22.21;71.07;99940.91;12462489;23;96410;-91
2023/06/27 12:03:07;;;;;;;4.45;3.95;;;23.20;93.60;;;22.06;72.63;99960.41;12485018;23;96837;-89
2023/06/27 12:08:10;;;;;;;6.93;4.88;;;23.10;94.10;;;22.01;74.30;99954.91;12439595;23;96445;-92
2023/06/27 12:13:14;;;;;;;6.55;5.45;;;22.90;94.70;;;21.84;76.83;99965.78;12460216;23;96762;-90
2023/06/27 12:18:24;;;;;;;8.63;6.18;;;22.80;95.70;;;21.63;81.60;99951.94;12459854;23;96496;-92
2023/06/27 12:23:30;;;;;;;6.80;6.10;;;22.60;97.00;;;21.43;84.22;99940.78;12438161;23;96850;-94
2023/06/27 12:28:33;;;;;;;6.63;5.85;;;22.40;97.90;;;21.26;86.17;99918.31;12460931;23;96430;-91
2023/06/27 12:33:37;;;;;;;6.70;5.65;;;22.20;98.80;;;21.18;87.19;99916.03;12461218;23;96474;-90
2023/06/27 12:38:41;;;;;;;8.48;6.47;;;22.20;99.40;;;21.25;87.25;99916.69;12458165;23;96395;-90
2023/06/27 12:43:45;;;;;;;9.30;6.40;;;22.20;99.90;;;21.27;84.47;99944.25;12460001;23;97630;-89
2023/06/27 12:48:49;;;;;;;7.93;6.20;;;22.20;99.60;;;21.25;84.01;99949.91;12484558;23;96746;-90
2023/06/27 12:53:52;;;;;;;7.00;5.78;;;22.20;99.60;;;21.26;83.82;99915.59;12458677;23;96878;-91
2023/06/27 12:58:57;;;;;;;8.52;6.05;;;22.20;99.40;;;21.25;84.27;99884.25;12436671;23;96852;-89
2023/06/27 13:04:00;;;;;;;6.38;5.75;;;22.30;99.50;;;21.26;83.77;99878.59;12481051;23;97192;-91
2023/06/27 13:09:04;;;;;;;9.27;5.88;;;22.30;99.40;;;21.23;83.97;99889.91;12458879;23;97225;-91
2023/06/27 13:14:09;;;;;;;8.45;6.03;;;22.20;99.40;;;21.20;85.95;99932.81;12459002;23;96826;-91
2023/06/27 13:19:13;;;;;;;7.90;6.20;;;22.20;99.80;;;21.07;87.05;99937.44;12464588;23;96392;-87
2023/06/27 13:24:17;;;;;;;6.28;5.50;;;22.10;99.90;;;21.04;88.51;99931.69;12453598;23;97105;-90
2023/06/27 13:29:23;;;;;;;8.07;6.00;;;22.00;99.90;;;21.02;87.35;99923.84;12484463;23;96436;-88
2023/06/27 13:34:27;;;;;;;7.28;4.75;;;22.00;99.90;;;20.95;79.77;99911.56;12484348;23;97010;-88
2023/06/27 13:39:31;;;;;;;6.00;4.43;;;21.90;99.30;;;20.92;78.69;99920.94;12436580;23;97013;-87
2023/06/27 13:44:34;;;;;;;4.85;4.15;;;21.90;98.70;;;20.82;76.98;99910.81;12459658;23;96895;-87
2023/06/27 13:49:39;;;;;;;5.07;4.30;;;21.90;98.20;;;20.76;76.86;99900.16;12488909;23;96398;-88
2023/06/27 13:54:43;;;;;;;5.93;4.18;;;21.80;98.10;;;20.73;77.06;99906.03;12458957;23;96859;-87
2023/06/27 13:59:46;;;;;;;5.65;3.95;;;21.70;97.60;;;20.65;75.15;99896.44;12458896;23;96727;-87
2023/06/27 14:04:50;;;;;;;8.13;3.75;;;21.60;97.10;;;20.58;74.83;99901.97;12461204;23;96534;-87
2023/06/27 14:09:54;;;;;;;7.15;4.07;;;21.60;96.90;;;20.52;74.60;99916.44;12462199;23;96469;-87
2023/06/27 14:14:57;;;;;;;5.82;3.70;;;21.50;96.70;;;20.50;75.06;99937.44;12461311;23;96527;-88
2023/06/27 14:20:01;;;;;;;5.70;3.47;;;21.50;96.70;;;20.49;76.48;99925.00;12486945;23;96515;-87
2023/06/27 14:25:06;;;;;;;5.50;4.10;;;21.50;97.00;;;20.52;76.31;99919.13;12437203;23;97499;-87
2023/06/27 14:30:10;;;;;;;5.53;3.80;;;21.50;96.90;;;20.63;75.05;99935.50;12461964;23;96926;-87
2023/06/27 14:35:13;;;;;;;6.65;3.53;;;21.60;96.60;;;20.65;73.47;99922.63;12485301;23;96526;-88
2023/06/27 14:40:17;;;;;;;5.50;3.50;;;21.70;96.20;;;20.66;73.88;99914.28;12461646;23;96833;-88
2023/06/27 14:45:20;;;;;;;4.82;3.50;;;21.70;96.00;;;20.65;73.20;99926.13;12460670;23;96712;-90
2023/06/27 14:50:24;;;;;;;6.18;3.97;;;21.70;96.10;;;20.65;73.51;99923.44;12438438;23;96353;-88
2023/06/27 14:55:28;;;;;;;7.75;4.00;;;21.70;95.90;;;20.63;73.27;99924.72;12484996;23;96508;-86
2023/06/27 15:00:32;;;;;;;6.00;3.83;;;21.60;95.80;;;20.62;73.97;99913.09;12461676;23;96836;-87
2023/06/27 15:05:36;;;;;;;5.03;3.55;;;21.70;95.90;;;20.61;73.54;99916.88;12461555;23;96511;-85
2023/06/27 15:10:44;;;;;;;8.32;4.00;;;21.60;95.80;;;20.62;73.44;99906.88;12483656;23;97046;-89
2023/06/27 15:15:49;;;;;;;7.97;3.85;;;21.60;95.80;;;20.65;73.84;99901.03;12460609;23;96599;-87
2023/06/27 15:20:52;;;;;;;5.95;3.95;;;21.60;95.80;;;20.69;73.10;99896.75;12485547;23;96856;-88
2023/06/27 15:25:56;;;;;;;6.30;3.88;;;21.70;95.70;;;20.72;73.03;99894.41;12482726;23;96747;-88
2023/06/27 15:31:00;;;;;;;6.13;3.88;;;21.70;95.60;;;20.81;72.75;99892.13;12458144;23;96967;-89
2023/06/27 15:36:04;;;;;;;5.43;3.67;;;21.80;95.50;;;20.84;72.33;99897.06;12485377;23;96610;-87
2023/06/27 15:41:08;;;;;;;5.57;3.63;;;21.90;95.30;;;20.85;71.59;99890.59;12461726;23;96541;-86
2023/06/27 15:46:13;;;;;;;8.02;3.75;;;21.90;95.10;;;20.88;71.51;99886.59;12485607;23;96327;-87
2023/06/27 15:51:16;;;;;;;4.47;2.88;;;21.90;95.10;;;20.87;69.07;99885.78;12461160;23;96477;-85
2023/06/27 15:56:20;;;;;;;7.57;3.22;;;21.80;94.30;;;20.80;67.85;99867.00;12462166;23;97717;-87
2023/06/27 16:01:24;;;;;;;5.15;2.97;;;21.80;93.90;;;20.72;65.55;99872.81;12462158;23;96372;-85
2023/06/27 16:06:35;;;;;;;8.52;2.92;;;21.80;92.90;;;20.62;61.63;99888.81;12462215;23;96468;-86
2023/06/27 16:11:39;;;;;;;3.67;1.90;;;21.60;91.50;;;20.49;59.40;99894.50;12465786;23;96540;-86
2023/06/27 16:16:42;;;;;;;4.82;2.05;;;21.50;90.30;;;20.42;58.87;99909.97;12461052;23;97012;-87
2023/06/27 16:21:46;;;;;;;3.67;2.38;;;21.40;89.30;;;20.39;59.74;99916.69;12439650;23;96704;-85
2023/06/27 16:26:49;;;;;;;3.42;1.90;;;21.40;89.60;;;20.38;60.09;99917.72;12461495;23;96502;-87
2023/06/27 16:31:53;;;;;;;4.03;2.03;;;21.40;89.70;;;20.36;60.06;99922.56;12485644;23;96324;-87
2023/06/27 16:36:57;;;;;;;3.72;2.10;;;21.40;89.40;;;20.31;59.88;99922.44;12483834;23;96532;-85
2023/06/27 16:42:00;;;;;;;4.95;1.80;;;21.30;89.10;;;20.21;58.81;99920.38;12461369;23;96655;-87
2023/06/27 16:47:04;;;;;;;4.18;2.03;;;21.30;88.00;;;20.16;59.51;99922.13;12460568;23;96380;-87
2023/06/27 16:52:08;;;;;;;4.00;2.00;;;21.20;88.30;;;20.13;59.86;99934.19;12461052;23;96369;-87
2023/06/27 16:57:11;;;;;;;6.28;2.03;;;21.10;88.40;;;20.10;59.80;99940.09;12460918;23;96800;-87
2023/06/27 17:02:15;;;;;;;5.38;2.00;;;21.10;88.50;;;20.07;60.54;99939.72;12446152;23;96437;-87
2023/06/27 17:07:19;;;;;;;3.75;1.92;;;21.10;88.70;;;20.04;61.18;99931.06;12460053;23;96540;-87
2023/06/27 17:12:24;;;;;;;5.78;1.95;;;21.10;89.30;;;20.07;61.30;99935.16;12437209;23;96613;-88
2023/06/27 17:17:28;;;;;;;3.15;1.80;;;21.10;89.20;;;20.03;60.13;99940.22;12484152;23;96360;-86
2023/06/27 17:22:32;;;;;;;3.08;1.85;;;21.10;88.60;;;19.98;59.83;99945.50;12485399;23;96639;-87
2023/06/27 17:27:35;;;;;;;9.18;2.10;;;21.00;88.10;;;19.91;60.26;99942.09;12460180;23;96419;-88
2023/06/27 17:32:38;;;;;;;4.55;1.98;;;21.00;87.90;;;19.86;60.65;99952.75;12459328;23;96532;-87
2023/06/27 17:37:42;;;;;;;5.75;1.85;;;20.90;88.20;;;19.78;61.08;99947.69;12460607;23;96379;-87
2023/06/27 17:42:48;;;;;;;3.60;1.75;;;20.90;88.50;;;19.67;61.41;99948.50;12465109;23;96478;-87
2023/06/27 17:47:51;;;;;;;2.72;1.77;;;20.70;88.80;;;19.62;61.48;99943.03;12460866;23;96686;-88
2023/06/27 17:52:57;;;;;;;3.50;1.80;;;20.70;89.10;;;19.53;61.97;99943.31;12461312;23;96636;-87
2023/06/27 17:58:01;;;;;;;5.43;2.00;;;20.60;89.40;;;19.47;62.50;99946.94;12459828;23;97023;-87
2023/06/27 18:03:04;;;;;;;2.92;1.50;;;20.50;89.60;;;19.39;62.53;99947.28;12459187;23;96564;-87
2023/06/27 18:08:16;;;;;;;2.65;1.58;;;20.50;89.40;;;19.29;62.72;99951.59;12458380;23;96910;-87
2023/06/27 18:13:20;;;;;;;3.45;1.88;;;20.40;89.60;;;19.19;63.35;99957.53;12460631;23;97910;-87
2023/06/27 18:18:24;;;;;;;3.42;2.17;;;20.30;90.00;;;19.13;63.68;99956.59;12459947;23;96493;-86
2023/06/27 18:23:28;;;;;;;3.65;1.75;;;20.20;90.10;;;19.05;63.99;99953.41;12483821;23;96520;-86
2023/06/27 18:28:33;;;;;;;3.15;1.67;;;20.20;90.30;;;18.98;64.36;99962.41;12438459;23;96597;-87
2023/06/27 18:33:36;;;;;;;3.25;2.08;;;20.00;90.20;;;18.88;64.04;99961.28;12459898;23;98589;-86
2023/06/27 18:38:41;;;;;;;3.30;1.73;;;20.00;90.20;;;18.84;64.15;99962.81;12462085;23;97334;-86
2023/06/27 18:43:47;;;;;;;2.85;1.70;;;19.90;90.30;;;18.76;64.13;99952.34;12462696;23;96367;-86
2023/06/27 18:48:51;;;;;;;4.25;1.73;;;19.90;90.30;;;18.70;63.82;99954.06;12462430;23;96706;-86
2023/06/27 18:53:57;;;;;;;2.80;1.60;;;19.80;90.30;;;18.64;63.41;99958.47;12487278;23;96996;-87
2023/06/27 18:59:01;;;;;;;3.03;1.60;;;19.70;90.10;;;18.57;63.70;99970.34;12461283;23;96486;-88
2023/06/27 19:04:04;;;;;;;3.67;1.55;;;19.70;90.10;;;18.50;63.29;99972.31;12461254;23;96852;-87
2023/06/27 19:09:08;;;;;;;4.03;1.63;;;19.60;90.00;;;18.45;63.34;99984.56;12461705;23;96510;-87
2023/06/27 19:14:12;;;;;;;4.43;1.60;;;19.50;89.90;;;18.41;63.62;99994.16;12462074;23;96405;-87
2023/06/27 19:19:16;;;;;;;2.50;1.60;;;19.50;90.00;;;18.37;63.87;99987.56;12438485;23;96390;-87
2023/06/27 19:24:20;;;;;;;2.25;1.55;;;19.50;90.10;;;18.32;64.36;99994.66;12487343;23;96427;-88
2023/06/27 19:29:24;;;;;;;2.78;1.50;;;19.40;90.20;;;18.23;64.97;99986.03;12485085;23;96424;-87
2023/06/27 19:34:27;;;;;;;3.55;1.45;;;19.30;90.50;;;18.17;64.16;99985.09;12461744;23;96414;-87
2023/06/27 19:39:31;;;;;;;2.08;1.58;;;19.30;90.30;;;18.15;64.05;99986.34;12438412;23;96893;-86
2023/06/27 19:44:35;;;;;;;3.83;1.50;;;19.20;90.20;;;18.15;62.56;99991.72;12460793;23;97489;-86
2023/06/27 19:49:38;;;;;;;3.15;1.48;;;19.20;89.50;;;18.19;61.11;99995.63;12459418;23;97188;-86
2023/06/27 19:54:42;;;;;;;3.42;1.50;;;19.20;88.40;;;18.22;61.58;99984.41;12486884;23;96340;-87
2023/06/27 19:59:46;;;;;;;2.88;1.42;;;19.30;88.20;;;18.25;61.51;99989.34;12460739;23;96371;-87
2023/06/27 20:04:50;;;;;;;2.83;1.60;;;19.30;88.00;;;18.19;61.61;99984.84;12486224;23;97105;-88
2023/06/27 20:09:55;;;;;;;6.28;1.70;;;19.30;87.90;;;18.16;61.56;99999.56;12461411;23;96401;-88
2023/06/27 20:14:58;;;;;;;3.17;1.77;;;19.20;88.00;;;18.09;64.18;99989.91;12461539;23;96741;-88
2023/06/27 20:20:04;;;;;;;2.67;1.63;;;19.20;88.80;;;18.00;64.78;99994.78;12484685;23;96571;-88
2023/06/27 20:25:08;;;;;;;2.10;1.40;;;19.10;89.70;;;17.91;62.63;99990.72;12462777;23;96721;-87
2023/06/27 20:30:14;;;;;;;2.80;1.60;;;19.00;88.80;;;17.86;61.84;99980.59;12454589;23;96824;-85
2023/06/27 20:35:18;;;;;;;3.65;1.30;;;18.90;88.10;;;17.82;62.36;99983.97;12436258;23;96478;-91
2023/06/27 20:40:22;;;;;;;3.05;1.38;;;19.00;88.60;;;17.84;63.41;99988.09;12459211;23;97038;-92
2023/06/27 20:45:27;;;;;;;3.22;1.55;;;18.90;88.80;;;17.80;61.56;99992.25;12460733;23;96451;-92
2023/06/27 20:50:31;;;;;;;3.72;1.42;;;18.90;88.50;;;17.81;61.36;99998.44;12460624;23;96522;-92
2023/06/27 20:55:35;;;;;;;3.95;1.65;;;18.90;87.50;;;17.83;61.05;99999.88;12459617;23;96463;-90
2023/06/27 21:00:38;;;;;;;2.35;1.40;;;18.90;87.10;;;17.82;60.94;100000.94;12484320;23;96504;-92
2023/06/27 21:05:43;;;;;;;2.42;1.30;;;18.90;87.00;;;17.83;60.98;99997.19;12485032;23;96386;-94
2023/06/27 21:10:47;;;;;;;3.67;1.33;;;18.90;87.00;;;17.84;61.05;99993.47;12459798;23;96579;-95